Last 7 Days

Gordon Valley 3 (GV3)

Hourly Data | America/Los_Angeles
as of 10/22/18 12:23 PM PDT
Date Time Temp (°F) RH (%) Dew Pt (°F) Wind Spd ( mph) Wind Dir (°) Wind Gust ( mph) Wind Gst Dir (°) Latest Rain (In) Solar Rad Tot Hr (Cal/cm2) Daily Rain (In) Min Temp (°F) Max Temp (°F) Day
10/22/18 1200 66.9 48 46.5 5.3 SSE | 160 8.4 S | 191 0.00 58 0.00 37.7 68.8 10/22/18
10/22/18 1100 65.0 53 47.6 3.6 SSE | 163 8.1 SSE | 154 0.00 47 0.00 37.7 67.0 10/22/18
10/22/18 1000 59.0 65 47.1 1.3 SSE | 162 4.1 S | 171 0.00 32 0.00 37.7 62.4 10/22/18
10/22/18 0900 47.1 85 42.7 0.0 W | 271 1.7 W | 276 0.00 15 0.00 37.7 55.8 10/22/18
10/22/18 0800 38.6 88 35.4 0.2 NNE | 26 1.9 NNE | 27 0.00 1 0.00 37.7 43.3 10/22/18
10/22/18 0700 39.1 88 35.8 0.2 NNE | 29 2.9 N | 9 0.00 0 0.00 38.3 43.3 10/22/18
10/22/18 0600 40.3 87 36.8 0.0 NNE | 30 1.7 NNE | 30 0.00 0 0.00 38.8 43.3 10/22/18
10/22/18 0500 40.8 87 37.1 0.1 NNE | 29 2.6 NNE | 20 0.00 0 0.00 39.9 43.3 10/22/18
10/22/18 0400 41.7 86 37.9 0.0 N | 0 0.0 N | 5 0.00 0 0.00 41.1 43.3 10/22/18
10/22/18 0300 41.7 85 37.6 0.0 N | 0 0.0 NE | 52 0.00 0 0.00 41.2 43.3 10/22/18
10/22/18 0200 42.4 84 38.0 0.0 NNE | 27 2.2 NE | 37 0.00 0 0.00 41.7 43.3 10/22/18
10/22/18 0100 43.6 82 38.6 0.3 NNE | 31 2.6 NNE | 28 0.00 0 0.00 39.0 84.9 10/21/18
10/22/18 0000 44.9 81 39.5 0.4 NNE | 23 2.1 NNE | 17 0.00 0 0.00 39.0 84.9 10/21/18
10/21/18 2300 46.9 80 41.0 0.4 NNE | 32 2.4 NE | 36 0.00 0 0.00 39.0 84.9 10/21/18
10/21/18 2200 49.3 78 42.7 0.6 NNE | 25 2.9 NE | 51 0.00 0 0.00 39.0 84.9 10/21/18
10/21/18 2100 52.2 73 43.8 1.1 NNE | 30 4.4 NNE | 23 0.00 0 0.00 39.0 84.9 10/21/18
10/21/18 2000 56.7 65 44.9 0.2 NE | 45 1.9 NE | 34 0.00 0 0.00 39.0 84.9 10/21/18
10/21/18 1900 66.4 49 46.3 1.0 SSE | 149 4.3 SE | 144 0.00 0 0.00 39.0 84.9 10/21/18
10/21/18 1800 79.5 23 37.3 2.2 WNW | 297 7.4 NW | 323 0.00 12 0.00 39.0 84.9 10/21/18
10/21/18 1700 84.0 22 40.5 2.6 SSW | 195 6.1 SSW | 202 0.00 30 0.00 39.0 84.9 10/21/18
10/21/18 1600 82.5 24 42.0 3.2 SSE | 168 9.1 SSE | 154 0.00 45 0.00 39.0 84.8 10/21/18
10/21/18 1500 77.4 32 45.4 4.3 SE | 144 8.6 S | 171 0.00 56 0.00 39.0 80.0 10/21/18
10/21/18 1400 74.3 36 45.8 4.7 SSE | 168 8.3 SE | 132 0.00 62 0.00 39.0 76.6 10/21/18
10/21/18 1300 71.5 40 45.9 4.6 SSE | 166 8.1 S | 169 0.00 63 0.00 39.0 73.4 10/21/18
10/21/18 1200 69.4 43 45.8 3.9 S | 178 7.4 SSE | 148 0.00 58 0.00 39.0 70.5 10/21/18
10/21/18 1100 65.8 47 45.0 2.6 S | 184 6.4 S | 170 0.00 47 0.00 39.0 68.3 10/21/18
10/21/18 1000 60.8 53 43.6 1.5 SSW | 211 4.4 S | 189 0.00 33 0.00 39.0 62.8 10/21/18
10/21/18 0900 50.1 71 41.0 0.1 SSE | 148 1.6 SE | 137 0.00 16 0.00 39.0 57.8 10/21/18
10/21/18 0800 40.1 83 35.4 0.8 NNE | 27 2.4 NE | 45 0.00 2 0.00 39.0 44.8 10/21/18
10/21/18 0700 39.8 83 35.1 0.7 NNE | 22 3.1 N | 7 0.00 0 0.00 39.2 44.8 10/21/18
10/21/18 0600 40.8 81 35.6 0.3 NNE | 33 1.7 ENE | 76 0.00 0 0.00 39.8 44.8 10/21/18
10/21/18 0500 41.7 80 35.8 0.5 NNE | 27 2.4 NNE | 28 0.00 0 0.00 40.7 44.8 10/21/18
10/21/18 0400 42.6 78 36.0 0.1 N | 9 1.7 N | 351 0.00 0 0.00 41.6 44.8 10/21/18
10/21/18 0300 43.2 75 35.9 0.4 NE | 34 2.2 N | 355 0.00 0 0.00 42.2 44.8 10/21/18
10/21/18 0200 43.8 73 35.9 0.6 NNE | 27 2.7 NE | 52 0.00 0 0.00 43.0 44.5 10/21/18
10/21/18 0100 44.7 71 36.0 0.8 NNE | 29 3.1 N | 6 0.00 0 0.00 43.0 85.2 10/20/18
10/21/18 0000 46.0 70 36.7 0.6 NNE | 29 3.1 NNE | 29 0.00 0 0.00 43.0 85.2 10/20/18
10/20/18 2300 48.2 65 37.2 0.2 NE | 37 1.9 N | 354 0.00 0 0.00 43.0 85.2 10/20/18
10/20/18 2200 50.1 61 37.4 0.8 NNE | 23 3.3 NE | 42 0.00 0 0.00 43.0 85.2 10/20/18
10/20/18 2100 55.4 53 38.6 1.1 NE | 36 4.6 NNE | 24 0.00 0 0.00 43.0 85.2 10/20/18
10/20/18 2000 57.6 54 40.9 0.9 NE | 39 3.4 ENE | 57 0.00 0 0.00 43.0 85.2 10/20/18
10/20/18 1900 67.2 41 42.4 0.8 NNE | 33 3.3 NE | 47 0.00 0 0.00 43.0 85.2 10/20/18
10/20/18 1800 81.5 23 40.1 2.9 SSW | 197 6.3 S | 176 0.00 13 0.00 43.0 85.2 10/20/18
10/20/18 1700 83.8 22 41.3 4.6 S | 188 9.3 S | 183 0.00 30 0.00 43.0 85.2 10/20/18
10/20/18 1600 84.0 20 38.7 4.2 S | 171 8.3 SSE | 152 0.00 46 0.00 43.0 84.9 10/20/18
10/20/18 1500 83.4 21 39.6 4.1 S | 175 7.8 S | 176 0.00 57 0.00 43.0 84.2 10/20/18
10/20/18 1400 82.1 22 39.6 3.3 S | 179 8.0 S | 174 0.00 63 0.00 43.0 83.5 10/20/18
10/20/18 1300 79.5 25 40.8 3.0 S | 179 6.9 SW | 218 0.00 64 0.00 43.0 81.5 10/20/18
10/20/18 1200 76.0 30 42.3 2.7 SSE | 166 5.8 S | 171 0.00 58 0.00 43.0 78.1 10/20/18
10/20/18 1100 71.7 37 43.9 2.5 S | 179 5.4 S | 175 0.00 48 0.00 43.0 74.0 10/20/18
10/20/18 1000 66.2 41 41.6 1.0 S | 189 3.6 SW | 218 0.00 33 0.00 43.0 68.3 10/20/18
10/20/18 0900 57.1 54 40.6 1.2 E | 93 4.3 ENE | 70 0.00 16 0.00 43.0 64.0 10/20/18
10/20/18 0800 47.9 69 38.1 2.0 NE | 51 4.6 ENE | 69 0.00 2 0.00 43.0 52.4 10/20/18
10/20/18 0700 44.5 74 36.8 1.5 NNE | 29 3.1 NNE | 25 0.00 0 0.00 43.0 52.4 10/20/18
10/20/18 0600 44.1 75 36.8 1.6 NE | 40 3.4 ENE | 65 0.00 0 0.00 43.0 52.4 10/20/18
10/20/18 0500 44.0 78 37.6 0.9 NNE | 31 2.7 NNE | 24 0.00 0 0.00 43.0 52.4 10/20/18
10/20/18 0400 45.8 75 38.4 0.6 NNE | 16 2.2 NNE | 27 0.00 0 0.00 44.6 52.4 10/20/18
10/20/18 0300 47.2 72 38.6 0.6 NE | 51 2.9 ENE | 65 0.00 0 0.00 45.8 52.4 10/20/18
10/20/18 0200 50.5 65 39.4 0.6 NNE | 31 3.8 NNE | 24 0.00 0 0.00 48.0 52.4 10/20/18
10/20/18 0100 54.8 58 40.2 2.6 NNE | 29 5.3 NE | 35 0.00 0 0.00 42.4 86.3 10/19/18
10/20/18 0000 53.3 61 40.2 1.7 NE | 54 4.4 ENE | 76 0.00 0 0.00 42.4 86.3 10/19/18
10/19/18 2300 55.6 57 40.6 1.8 NE | 56 4.1 ENE | 78 0.00 0 0.00 42.4 86.3 10/19/18
10/19/18 2200 55.2 58 40.7 2.1 NE | 55 4.3 ENE | 71 0.00 0 0.00 42.4 86.3 10/19/18
10/19/18 2100 56.7 57 41.4 1.4 NE | 45 3.9 ENE | 64 0.00 0 0.00 42.4 86.3 10/19/18
10/19/18 2000 60.1 54 43.5 1.0 NE | 38 3.4 ENE | 62 0.00 0 0.00 42.4 86.3 10/19/18
10/19/18 1900 70.0 40 44.2 1.3 NE | 38 4.4 SSW | 202 0.00 1 0.00 42.4 86.3 10/19/18
10/19/18 1800 82.6 24 42.4 3.0 SSW | 193 6.1 SSW | 192 0.00 12 0.00 42.4 86.3 10/19/18
10/19/18 1700 85.4 19 39.0 3.1 S | 190 6.3 S | 174 0.00 30 0.00 42.4 86.3 10/19/18
10/19/18 1600 85.4 20 39.3 4.4 SSW | 198 8.1 S | 191 0.00 45 0.00 42.4 86.3 10/19/18
10/19/18 1500 84.8 19 37.9 4.4 SSW | 206 8.8 S | 183 0.00 57 0.00 42.4 85.7 10/19/18
10/19/18 1400 82.4 22 39.8 4.3 SW | 225 9.0 WSW | 245 0.00 64 0.00 42.4 84.2 10/19/18
10/19/18 1300 78.7 28 42.6 2.8 S | 184 5.9 SSW | 192 0.00 64 0.00 42.4 80.9 10/19/18
10/19/18 1200 74.1 32 42.6 2.7 SSW | 210 6.8 SSW | 204 0.00 59 0.00 42.4 76.9 10/19/18
10/19/18 1100 69.6 37 42.3 3.8 SSW | 209 7.1 SSE | 166 0.00 48 0.00 42.4 71.3 10/19/18
10/19/18 1000 65.5 44 42.8 2.0 SE | 138 6.3 SSE | 166 0.00 33 0.00 42.4 68.9 10/19/18
10/19/18 0900 53.2 66 42.0 1.1 NE | 53 2.9 NE | 49 0.00 16 0.00 42.4 60.6 10/19/18
10/19/18 0800 43.6 81 38.1 1.4 NE | 39 3.9 E | 81 0.00 2 0.00 42.4 50.6 10/19/18
10/19/18 0700 43.4 80 37.9 1.2 NNE | 32 3.1 ENE | 72 0.00 0 0.00 42.7 50.6 10/19/18
10/19/18 0600 43.7 79 37.7 0.9 ENE | 66 3.3 ENE | 72 0.00 0 0.00 42.9 50.6 10/19/18
10/19/18 0500 44.1 80 38.3 1.2 NNE | 32 3.8 NNE | 29 0.00 0 0.00 43.4 50.6 10/19/18
10/19/18 0400 46.5 77 39.6 0.6 NE | 40 3.4 ENE | 74 0.00 0 0.00 45.0 50.6 10/19/18
10/19/18 0300 48.2 74 40.2 1.4 NNE | 30 3.6 NE | 34 0.00 0 0.00 47.3 50.6 10/19/18
10/19/18 0200 49.3 70 40.0 1.4 NE | 36 3.4 NE | 41 0.00 0 0.00 48.4 50.6 10/19/18
10/19/18 0100 49.5 68 39.5 1.0 NE | 39 3.4 N | 9 0.00 0 0.00 38.9 83.2 10/18/18
10/19/18 0000 53.0 62 40.2 2.0 NE | 37 3.9 NNE | 25 0.00 0 0.00 38.9 83.2 10/18/18
10/18/18 2300 53.3 61 40.4 1.2 NE | 56 3.9 NE | 42 0.00 0 0.00 38.9 83.2 10/18/18
10/18/18 2200 55.2 58 40.8 1.9 NE | 43 3.6 NNE | 27 0.00 0 0.00 38.9 83.2 10/18/18
10/18/18 2100 54.9 60 41.4 1.6 NE | 45 3.4 ENE | 67 0.00 0 0.00 38.9 83.2 10/18/18
10/18/18 2000 60.4 51 42.1 0.8 NNE | 32 3.9 N | 0 0.00 0 0.00 38.9 83.2 10/18/18
10/18/18 1900 67.5 43 43.7 1.1 NE | 37 3.8 SE | 133 0.00 1 0.00 38.9 83.2 10/18/18
10/18/18 1800 79.7 26 41.3 3.1 S | 181 5.8 SSW | 212 0.00 13 0.00 38.9 83.2 10/18/18
10/18/18 1700 82.4 22 39.7 3.4 S | 181 6.9 SW | 223 0.00 30 0.00 38.9 83.2 10/18/18
10/18/18 1600 82.3 23 41.0 3.9 SSW | 195 8.3 SSE | 165 0.00 46 0.00 38.9 83.2 10/18/18
10/18/18 1500 80.6 25 41.6 4.1 SSW | 196 10.1 S | 173 0.00 57 0.00 38.9 82.2 10/18/18
10/18/18 1400 78.4 28 42.4 4.2 SSW | 202 8.1 SSW | 207 0.00 64 0.00 38.9 80.0 10/18/18
10/18/18 1300 74.2 35 44.4 4.1 SSW | 208 8.3 SSW | 201 0.00 64 0.00 38.9 76.4 10/18/18
10/18/18 1200 71.6 38 44.7 4.0 S | 188 7.6 SSE | 155 0.00 59 0.00 38.9 73.0 10/18/18
10/18/18 1100 67.8 43 44.7 3.3 S | 188 6.8 S | 169 0.00 48 0.00 38.9 70.1 10/18/18
10/18/18 1000 62.8 50 44.0 1.6 SSW | 192 4.3 SSW | 193 0.00 34 0.00 38.9 65.5 10/18/18
10/18/18 0900 50.9 72 42.0 0.1 NE | 53 1.7 N | 8 0.00 17 0.00 38.9 58.1 10/18/18
10/18/18 0800 40.2 84 35.6 1.0 NE | 35 3.9 NE | 51 0.00 2 0.00 38.9 44.3 10/18/18
10/18/18 0700 39.4 83 34.8 1.3 NNE | 20 3.1 NNE | 31 0.00 0 0.00 38.9 44.3 10/18/18
10/18/18 0600 39.9 82 34.7 0.4 NNE | 29 2.4 NNE | 24 0.00 0 0.00 38.9 44.3 10/18/18
10/18/18 0500 40.4 80 34.8 0.4 NNE | 22 2.6 NE | 39 0.00 0 0.00 39.8 44.3 10/18/18
10/18/18 0400 41.1 78 34.6 0.3 NNE | 26 2.1 NNE | 31 0.00 0 0.00 40.6 44.3 10/18/18
10/18/18 0300 42.1 76 35.0 0.8 NNE | 27 2.7 NNE | 18 0.00 0 0.00 41.3 44.3 10/18/18
10/18/18 0200 43.1 74 35.2 0.4 NNE | 29 2.4 NNE | 31 0.00 0 0.00 42.0 44.3 10/18/18
10/18/18 0100 44.5 72 35.9 0.6 NNE | 33 2.2 NE | 35 0.00 0 0.00 37.8 82.2 10/17/18
10/18/18 0000 46.5 67 36.2 0.4 NNE | 31 2.2 NNE | 23 0.00 0 0.00 37.8 82.2 10/17/18
10/17/18 2300 48.8 63 36.8 0.5 NE | 37 2.6 NE | 52 0.00 0 0.00 37.8 82.2 10/17/18
10/17/18 2200 50.5 61 37.7 0.5 NNE | 26 3.4 NNE | 25 0.00 0 0.00 37.8 82.2 10/17/18
10/17/18 2100 52.9 59 39.2 0.6 NE | 39 2.9 ENE | 60 0.00 0 0.00 37.8 82.2 10/17/18
10/17/18 2000 57.2 54 40.8 0.7 NE | 46 3.3 NE | 38 0.00 0 0.00 37.8 82.2 10/17/18
10/17/18 1900 66.3 41 41.7 1.0 ENE | 71 3.3 S | 180 0.00 1 0.00 37.8 82.2 10/17/18
10/17/18 1800 78.1 26 40.1 3.8 SSW | 194 7.1 S | 184 0.00 13 0.00 37.8 82.2 10/17/18
10/17/18 1700 81.3 19 35.0 4.0 SSW | 202 7.8 SSW | 207 0.00 31 0.00 37.8 82.2 10/17/18
10/17/18 1600 81.5 18 34.6 4.3 SSW | 199 8.4 S | 185 0.00 46 0.00 37.8 82.2 10/17/18
10/17/18 1500 80.9 18 33.9 4.4 S | 183 9.6 S | 187 0.00 58 0.00 37.8 82.2 10/17/18
10/17/18 1400 79.4 21 35.8 5.9 S | 184 9.8 SSW | 193 0.00 65 0.00 37.8 80.4 10/17/18
10/17/18 1300 76.5 26 38.5 5.3 S | 176 10.5 SSW | 192 0.00 65 0.00 37.8 78.7 10/17/18
10/17/18 1200 72.4 31 40.2 3.9 S | 188 7.4 S | 186 0.00 60 0.00 37.8 74.5 10/17/18
10/17/18 1100 68.4 32 37.6 2.8 SSW | 198 6.1 SSE | 148 0.00 49 0.00 37.8 70.8 10/17/18
10/17/18 1000 63.1 35 35.1 0.7 SSW | 194 3.6 SW | 231 0.00 35 0.00 37.8 66.5 10/17/18
10/17/18 0900 49.7 57 34.8 0.2 NE | 47 1.9 E | 88 0.00 18 0.00 37.8 57.6 10/17/18
10/17/18 0800 38.9 74 31.5 0.7 NNE | 20 3.3 NE | 35 0.00 2 0.00 37.8 46.6 10/17/18
10/17/18 0700 39.5 71 30.8 0.8 NNE | 14 2.6 E | 100 0.00 0 0.00 38.7 46.6 10/17/18
10/17/18 0600 39.7 70 30.6 1.3 NNE | 26 3.1 NNE | 22 0.00 0 0.00 38.7 46.6 10/17/18
10/17/18 0500 40.3 69 30.8 0.9 NNE | 28 2.7 N | 0 0.00 0 0.00 38.8 46.6 10/17/18
10/17/18 0400 41.4 68 31.7 0.5 NNE | 31 2.9 NE | 46 0.00 0 0.00 40.6 46.6 10/17/18
10/17/18 0300 43.4 64 32.0 1.0 NNE | 26 3.8 ENE | 74 0.00 0 0.00 42.3 46.6 10/17/18
10/17/18 0200 45.3 59 32.0 0.3 NNE | 21 1.9 N | 7 0.00 0 0.00 43.8 46.6 10/17/18
10/17/18 0100 46.8 57 32.4 0.3 NNE | 25 4.1 N | 5 0.00 0 0.00 39.2 85.6 10/16/18
10/17/18 0000 47.6 54 31.7 0.3 ENE | 60 3.1 NE | 52 0.00 0 0.00 39.2 85.6 10/16/18
10/16/18 2300 49.0 52 31.9 0.4 NE | 55 2.4 ENE | 72 0.00 0 0.00 39.2 85.6 10/16/18
10/16/18 2200 50.5 50 32.5 0.7 NNE | 21 3.3 NE | 41 0.00 0 0.00 39.2 85.6 10/16/18
10/16/18 2100 53.2 47 33.6 1.0 NE | 40 3.9 ENE | 66 0.00 0 0.00 39.2 85.6 10/16/18
10/16/18 2000 57.6 42 34.4 1.0 NE | 36 4.6 NNE | 32 0.00 0 0.00 39.2 85.6 10/16/18
10/16/18 1900 68.5 27 32.0 1.5 N | 1 4.9 SW | 232 0.00 1 0.00 39.2 85.6 10/16/18
10/16/18 1800 80.8 16 29.7 5.0 WSW | 238 9.0 SSW | 209 0.00 15 0.00 39.2 85.6 10/16/18
10/16/18 1700 84.6 14 30.7 5.1 SSW | 202 9.5 S | 171 0.00 30 0.00 39.2 85.6 10/16/18
10/16/18 1600 84.8 14 30.9 4.7 S | 191 9.3 S | 171 0.00 46 0.00 39.2 85.5 10/16/18
10/16/18 1500 83.7 14 30.0 3.8 SSW | 206 8.3 SSW | 205 0.00 60 0.00 39.2 84.9 10/16/18
10/16/18 1400 82.0 17 33.3 4.4 SSW | 196 9.3 SSW | 194 0.00 66 0.00 39.2 83.4 10/16/18
10/16/18 1300 79.1 19 32.7 4.4 SSW | 200 8.4 S | 177 0.00 67 0.00 39.2 81.4 10/16/18
10/16/18 1200 76.5 20 32.9 4.2 S | 176 7.8 S | 170 0.00 61 0.00 39.2 78.1 10/16/18
10/16/18 1100 72.5 19 27.8 2.7 SSW | 198 6.8 SSW | 201 0.00 51 0.00 39.2 74.8 10/16/18
10/16/18 1000 65.4 25 28.2 0.8 SSW | 196 3.4 SW | 233 0.00 36 0.00 39.2 69.2 10/16/18
10/16/18 0900 53.3 36 26.8 0.4 SE | 133 2.4 SSE | 163 0.00 19 0.00 39.2 61.2 10/16/18
10/16/18 0800 40.5 55 25.8 1.0 NNE | 28 3.4 ENE | 60 0.00 2 0.00 39.2 56.3 10/16/18
10/16/18 0700 40.2 55 25.1 1.3 NNE | 18 4.8 NE | 42 0.00 0 0.00 39.5 56.3 10/16/18
10/16/18 0600 41.1 53 25.2 1.0 NNE | 25 4.8 ENE | 66 0.00 0 0.00 39.9 56.3 10/16/18
10/16/18 0500 42.2 51 25.3 1.7 NNE | 28 4.3 ENE | 57 0.00 0 0.00 41.2 56.3 10/16/18
10/16/18 0400 43.4 51 26.5 1.4 NNE | 33 4.1 ENE | 70 0.00 0 0.00 42.0 56.3 10/16/18
10/16/18 0300 46.7 43 25.2 1.5 NE | 48 5.1 ENE | 76 0.00 0 0.00 45.4 56.3 10/16/18
10/16/18 0200 50.2 36 23.9 2.3 NNE | 30 5.6 N | 349 0.00 0 0.00 47.3 56.3 10/16/18
10/16/18 0100 51.6 33 23.3 1.5 NE | 44 4.4 N | 5 0.00 0 0.00 48.5 54.2 10/16/18
10/16/18 0000 49.7 36 23.6 1.3 NE | 49 3.6 NNE | 30 0.00 0 0.00 47.8 86.5 10/15/18
10/15/18 2300 52.1 32 22.9 2.2 NE | 50 4.6 NE | 43 0.00 0 0.00 49.4 86.5 10/15/18
10/15/18 2200 50.2 36 24.0 1.5 NE | 38 4.6 NNE | 31 0.00 0 0.00 49.4 86.5 10/15/18
10/15/18 2100 52.7 34 24.8 1.3 NE | 38 3.8 NE | 39 0.00 0 0.00 50.0 86.5 10/15/18
10/15/18 2000 57.6 32 27.7 2.0 ENE | 61 4.8 NE | 45 0.00 0 0.00 56.1 86.5 10/15/18
10/15/18 1900 69.3 20 25.2 1.2 WNW | 298 7.1 WSW | 241 0.00 1 0.00 56.1 86.5 10/15/18
10/15/18 1800 81.5 11 21.9 4.5 SSW | 213 8.4 SSW | 199 0.00 16 0.00 56.1 86.5 10/15/18
10/15/18 1700 84.5 9 20.6 4.3 SSW | 193 8.1 SW | 236 0.00 34 0.00 56.1 86.5 10/15/18
10/15/18 1600 84.7 9 19.2 4.3 S | 187 12.0 ENE | 59 0.00 50 0.00 56.1 86.0 10/15/18
10/15/18 1500 84.2 9 18.5 3.4 ESE | 119 9.8 ESE | 114 0.00 62 0.00 56.1 85.2 10/15/18
10/15/18 1400 83.3 9 17.5 3.1 SE | 140 8.6 ENE | 73 0.00 69 0.00 56.1 84.8 10/15/18
10/15/18 1300 81.7 9 17.5 3.5 SSE | 163 8.0 S | 179 0.00 69 0.00 56.1 83.7 10/15/18
Tip: Bookmark this page for easy future reference